sensor_id;sensor_type;location;lat;lon;timestamp;temperature;humidity
45044;DHT22;30784;48.490;9.688;2023-03-14T00:00:14;11.70;62.30
45044;DHT22;30784;48.490;9.688;2023-03-14T00:02:40;11.60;62.00
45044;DHT22;30784;48.490;9.688;2023-03-14T00:05:06;11.50;62.50
45044;DHT22;30784;48.490;9.688;2023-03-14T00:07:37;11.40;62.60
45044;DHT22;30784;48.490;9.688;2023-03-14T00:10:04;11.40;63.10
45044;DHT22;30784;48.490;9.688;2023-03-14T00:12:30;11.40;61.50
45044;DHT22;30784;48.490;9.688;2023-03-14T00:14:55;11.30;63.10
45044;DHT22;30784;48.490;9.688;2023-03-14T00:17:21;11.30;63.00
45044;DHT22;30784;48.490;9.688;2023-03-14T00:19:46;11.20;63.00
45044;DHT22;30784;48.490;9.688;2023-03-14T00:22:12;11.20;62.80
45044;DHT22;30784;48.490;9.688;2023-03-14T00:24:37;11.10;62.90
45044;DHT22;30784;48.490;9.688;2023-03-14T00:27:03;11.10;63.20
45044;DHT22;30784;48.490;9.688;2023-03-14T00:29:28;11.00;63.30
45044;DHT22;30784;48.490;9.688;2023-03-14T00:31:54;11.00;63.30
45044;DHT22;30784;48.490;9.688;2023-03-14T00:34:19;10.90;63.20
45044;DHT22;30784;48.490;9.688;2023-03-14T00:36:45;10.90;63.40
45044;DHT22;30784;48.490;9.688;2023-03-14T00:39:10;10.90;63.40
45044;DHT22;30784;48.490;9.688;2023-03-14T00:41:36;10.80;63.30
45044;DHT22;30784;48.490;9.688;2023-03-14T00:44:01;10.80;63.40
45044;DHT22;30784;48.490;9.688;2023-03-14T00:46:27;10.80;63.20
45044;DHT22;30784;48.490;9.688;2023-03-14T00:48:53;10.70;63.10
45044;DHT22;30784;48.490;9.688;2023-03-14T00:51:18;10.70;63.20
45044;DHT22;30784;48.490;9.688;2023-03-14T00:53:44;10.70;63.40
45044;DHT22;30784;48.490;9.688;2023-03-14T00:56:12;10.70;63.50
45044;DHT22;30784;48.490;9.688;2023-03-14T00:58:38;10.60;63.70
45044;DHT22;30784;48.490;9.688;2023-03-14T01:01:09;10.60;63.80
45044;DHT22;30784;48.490;9.688;2023-03-14T01:03:35;10.60;63.90
45044;DHT22;30784;48.490;9.688;2023-03-14T01:06:15;10.60;64.10
45044;DHT22;30784;48.490;9.688;2023-03-14T01:08:41;10.60;63.70
45044;DHT22;30784;48.490;9.688;2023-03-14T01:11:13;10.60;64.10
45044;DHT22;30784;48.490;9.688;2023-03-14T01:13:39;10.50;64.10
45044;DHT22;30784;48.490;9.688;2023-03-14T01:16:07;10.50;64.00
45044;DHT22;30784;48.490;9.688;2023-03-14T01:18:34;10.50;64.00
45044;DHT22;30784;48.490;9.688;2023-03-14T01:21:07;10.50;64.10
45044;DHT22;30784;48.490;9.688;2023-03-14T01:23:34;10.50;64.00
45044;DHT22;30784;48.490;9.688;2023-03-14T01:26:00;10.50;64.20
45044;DHT22;30784;48.490;9.688;2023-03-14T01:28:25;10.50;64.40
45044;DHT22;30784;48.490;9.688;2023-03-14T01:30:51;10.50;64.40
45044;DHT22;30784;48.490;9.688;2023-03-14T01:33:16;10.50;64.60
45044;DHT22;30784;48.490;9.688;2023-03-14T01:35:42;10.50;64.60
45044;DHT22;30784;48.490;9.688;2023-03-14T01:38:08;10.60;64.60
45044;DHT22;30784;48.490;9.688;2023-03-14T01:40:33;10.50;64.60
45044;DHT22;30784;48.490;9.688;2023-03-14T01:43:12;10.50;64.70
45044;DHT22;30784;48.490;9.688;2023-03-14T01:48:38;10.50;64.30
45044;DHT22;30784;48.490;9.688;2023-03-14T01:51:12;10.60;64.50
45044;DHT22;30784;48.490;9.688;2023-03-14T01:53:40;10.60;64.60
45044;DHT22;30784;48.490;9.688;2023-03-14T01:56:08;10.60;64.50
45044;DHT22;30784;48.490;9.688;2023-03-14T01:58:35;10.60;64.50
45044;DHT22;30784;48.490;9.688;2023-03-14T02:01:03;10.60;64.60
45044;DHT22;30784;48.490;9.688;2023-03-14T02:03:31;10.60;64.60
45044;DHT22;30784;48.490;9.688;2023-03-14T02:06:04;10.60;64.60
45044;DHT22;30784;48.490;9.688;2023-03-14T02:08:31;10.70;64.60
45044;DHT22;30784;48.490;9.688;2023-03-14T02:10:57;10.70;64.70
45044;DHT22;30784;48.490;9.688;2023-03-14T02:13:23;10.70;64.70
45044;DHT22;30784;48.490;9.688;2023-03-14T02:15:49;10.70;64.70
45044;DHT22;30784;48.490;9.688;2023-03-14T02:18:16;10.70;64.80
45044;DHT22;30784;48.490;9.688;2023-03-14T02:23:53;10.70;64.70
45044;DHT22;30784;48.490;9.688;2023-03-14T02:26:29;10.80;64.60
45044;DHT22;30784;48.490;9.688;2023-03-14T02:28:55;10.80;64.70
45044;DHT22;30784;48.490;9.688;2023-03-14T02:31:22;10.80;64.70
45044;DHT22;30784;48.490;9.688;2023-03-14T02:33:48;10.80;64.70
45044;DHT22;30784;48.490;9.688;2023-03-14T02:36:14;10.80;64.70
45044;DHT22;30784;48.490;9.688;2023-03-14T02:38:46;10.80;64.70
45044;DHT22;30784;48.490;9.688;2023-03-14T02:41:13;10.80;64.60
45044;DHT22;30784;48.490;9.688;2023-03-14T02:43:39;10.80;64.70
45044;DHT22;30784;48.490;9.688;2023-03-14T02:46:05;10.80;64.80
45044;DHT22;30784;48.490;9.688;2023-03-14T02:48:41;10.80;64.80
45044;DHT22;30784;48.490;9.688;2023-03-14T02:51:08;10.80;64.80
45044;DHT22;30784;48.490;9.688;2023-03-14T02:53:35;10.80;64.80
45044;DHT22;30784;48.490;9.688;2023-03-14T02:56:02;10.80;64.80
45044;DHT22;30784;48.490;9.688;2023-03-14T02:58:28;10.80;64.80
45044;DHT22;30784;48.490;9.688;2023-03-14T03:00:54;10.80;64.80
45044;DHT22;30784;48.490;9.688;2023-03-14T03:03:19;10.80;64.90
45044;DHT22;30784;48.490;9.688;2023-03-14T03:05:49;10.80;64.90
45044;DHT22;30784;48.490;9.688;2023-03-14T03:08:16;10.90;65.50
45044;DHT22;30784;48.490;9.688;2023-03-14T03:10:41;10.90;65.00
45044;DHT22;30784;48.490;9.688;2023-03-14T03:13:07;10.80;65.00
45044;DHT22;30784;48.490;9.688;2023-03-14T03:15:33;10.90;64.90
45044;DHT22;30784;48.490;9.688;2023-03-14T03:17:59;10.90;64.80
45044;DHT22;30784;48.490;9.688;2023-03-14T03:20:24;10.90;64.80
45044;DHT22;30784;48.490;9.688;2023-03-14T03:22:50;10.90;64.90
45044;DHT22;30784;48.490;9.688;2023-03-14T03:25:16;10.90;64.80
45044;DHT22;30784;48.490;9.688;2023-03-14T03:27:42;10.90;64.80
45044;DHT22;30784;48.490;9.688;2023-03-14T03:30:09;10.90;64.70
45044;DHT22;30784;48.490;9.688;2023-03-14T03:32:34;10.90;64.60
45044;DHT22;30784;48.490;9.688;2023-03-14T03:35:02;10.90;64.70
45044;DHT22;30784;48.490;9.688;2023-03-14T03:37:30;10.90;64.70
45044;DHT22;30784;48.490;9.688;2023-03-14T03:39:56;10.90;64.60
45044;DHT22;30784;48.490;9.688;2023-03-14T03:42:21;10.90;64.60
45044;DHT22;30784;48.490;9.688;2023-03-14T03:44:47;10.90;64.60
45044;DHT22;30784;48.490;9.688;2023-03-14T03:47:13;10.90;64.60
45044;DHT22;30784;48.490;9.688;2023-03-14T03:49:39;10.90;64.60
45044;DHT22;30784;48.490;9.688;2023-03-14T03:52:04;10.90;64.60
45044;DHT22;30784;48.490;9.688;2023-03-14T03:54:30;10.90;64.60
45044;DHT22;30784;48.490;9.688;2023-03-14T03:56:55;10.90;64.60
45044;DHT22;30784;48.490;9.688;2023-03-14T03:59:21;10.90;64.50
45044;DHT22;30784;48.490;9.688;2023-03-14T04:01:47;10.90;64.50
45044;DHT22;30784;48.490;9.688;2023-03-14T04:04:13;10.90;64.50
45044;DHT22;30784;48.490;9.688;2023-03-14T04:06:38;10.80;64.40
45044;DHT22;30784;48.490;9.688;2023-03-14T04:09:04;10.80;64.40
45044;DHT22;30784;48.490;9.688;2023-03-14T04:11:29;10.80;64.40
45044;DHT22;30784;48.490;9.688;2023-03-14T04:13:55;10.80;64.40
45044;DHT22;30784;48.490;9.688;2023-03-14T04:16:23;10.80;64.40
45044;DHT22;30784;48.490;9.688;2023-03-14T04:18:49;10.80;64.40
45044;DHT22;30784;48.490;9.688;2023-03-14T04:21:15;10.80;64.40
45044;DHT22;30784;48.490;9.688;2023-03-14T04:23:41;10.80;64.30
45044;DHT22;30784;48.490;9.688;2023-03-14T04:26:06;10.80;64.40
45044;DHT22;30784;48.490;9.688;2023-03-14T04:28:32;10.80;64.40
45044;DHT22;30784;48.490;9.688;2023-03-14T04:30:57;10.80;64.40
45044;DHT22;30784;48.490;9.688;2023-03-14T04:33:23;10.70;64.30
45044;DHT22;30784;48.490;9.688;2023-03-14T04:35:53;10.70;64.20
45044;DHT22;30784;48.490;9.688;2023-03-14T04:38:18;10.70;64.20
45044;DHT22;30784;48.490;9.688;2023-03-14T04:40:44;10.70;64.20
45044;DHT22;30784;48.490;9.688;2023-03-14T04:43:11;10.70;64.10
45044;DHT22;30784;48.490;9.688;2023-03-14T04:45:37;10.70;64.20
45044;DHT22;30784;48.490;9.688;2023-03-14T04:48:03;10.70;64.20
45044;DHT22;30784;48.490;9.688;2023-03-14T04:50:28;10.70;64.30
45044;DHT22;30784;48.490;9.688;2023-03-14T04:52:54;10.60;64.20
45044;DHT22;30784;48.490;9.688;2023-03-14T04:55:19;10.70;64.30
45044;DHT22;30784;48.490;9.688;2023-03-14T04:57:45;10.70;64.20
45044;DHT22;30784;48.490;9.688;2023-03-14T05:00:11;10.60;64.10
45044;DHT22;30784;48.490;9.688;2023-03-14T05:02:37;10.70;64.10
45044;DHT22;30784;48.490;9.688;2023-03-14T05:05:02;10.70;64.20
45044;DHT22;30784;48.490;9.688;2023-03-14T05:07:28;10.60;64.10
45044;DHT22;30784;48.490;9.688;2023-03-14T05:09:54;10.60;64.00
45044;DHT22;30784;48.490;9.688;2023-03-14T05:12:20;10.60;63.90
45044;DHT22;30784;48.490;9.688;2023-03-14T05:14:45;10.60;63.90
45044;DHT22;30784;48.490;9.688;2023-03-14T05:17:11;10.60;63.80
45044;DHT22;30784;48.490;9.688;2023-03-14T05:19:40;10.60;63.60
45044;DHT22;30784;48.490;9.688;2023-03-14T05:22:05;10.60;63.60
45044;DHT22;30784;48.490;9.688;2023-03-14T05:24:31;10.50;63.50
45044;DHT22;30784;48.490;9.688;2023-03-14T05:26:56;10.50;63.50
45044;DHT22;30784;48.490;9.688;2023-03-14T05:29:22;10.50;63.50
45044;DHT22;30784;48.490;9.688;2023-03-14T05:31:47;10.50;63.40
45044;DHT22;30784;48.490;9.688;2023-03-14T05:34:13;10.50;63.50
45044;DHT22;30784;48.490;9.688;2023-03-14T05:36:41;10.40;63.30
45044;DHT22;30784;48.490;9.688;2023-03-14T05:39:06;10.50;63.50
45044;DHT22;30784;48.490;9.688;2023-03-14T05:41:32;10.40;63.50
45044;DHT22;30784;48.490;9.688;2023-03-14T05:43:57;10.40;63.60
45044;DHT22;30784;48.490;9.688;2023-03-14T05:46:23;10.40;63.60
45044;DHT22;30784;48.490;9.688;2023-03-14T05:48:48;10.40;63.50
45044;DHT22;30784;48.490;9.688;2023-03-14T05:51:14;10.40;63.40
45044;DHT22;30784;48.490;9.688;2023-03-14T05:53:39;10.40;63.40
45044;DHT22;30784;48.490;9.688;2023-03-14T05:56:05;10.40;63.40
45044;DHT22;30784;48.490;9.688;2023-03-14T05:58:31;10.40;63.40
45044;DHT22;30784;48.490;9.688;2023-03-14T06:00:56;10.30;63.50
45044;DHT22;30784;48.490;9.688;2023-03-14T06:03:22;10.30;63.60
45044;DHT22;30784;48.490;9.688;2023-03-14T06:05:50;10.30;63.60
45044;DHT22;30784;48.490;9.688;2023-03-14T06:08:15;10.30;63.60
45044;DHT22;30784;48.490;9.688;2023-03-14T06:10:41;10.30;63.60
45044;DHT22;30784;48.490;9.688;2023-03-14T06:13:07;10.30;63.60
45044;DHT22;30784;48.490;9.688;2023-03-14T06:15:32;10.30;63.50
45044;DHT22;30784;48.490;9.688;2023-03-14T06:17:58;10.30;63.50
45044;DHT22;30784;48.490;9.688;2023-03-14T06:20:24;10.30;63.50
45044;DHT22;30784;48.490;9.688;2023-03-14T06:22:49;10.30;63.40
45044;DHT22;30784;48.490;9.688;2023-03-14T06:25:15;10.30;63.60
45044;DHT22;30784;48.490;9.688;2023-03-14T06:27:40;10.20;63.40
45044;DHT22;30784;48.490;9.688;2023-03-14T06:30:06;10.20;63.40
45044;DHT22;30784;48.490;9.688;2023-03-14T06:32:32;10.20;63.40
45044;DHT22;30784;48.490;9.688;2023-03-14T06:34:58;10.20;63.40
45044;DHT22;30784;48.490;9.688;2023-03-14T06:37:27;10.20;63.50
45044;DHT22;30784;48.490;9.688;2023-03-14T06:39:53;10.20;63.50
45044;DHT22;30784;48.490;9.688;2023-03-14T06:42:18;10.10;63.40
45044;DHT22;30784;48.490;9.688;2023-03-14T06:44:44;10.20;63.60
45044;DHT22;30784;48.490;9.688;2023-03-14T06:47:09;10.20;63.60
45044;DHT22;30784;48.490;9.688;2023-03-14T06:49:35;10.20;63.50
45044;DHT22;30784;48.490;9.688;2023-03-14T06:52:00;10.20;63.60
45044;DHT22;30784;48.490;9.688;2023-03-14T06:54:26;10.20;63.60
45044;DHT22;30784;48.490;9.688;2023-03-14T06:56:51;10.20;63.70
45044;DHT22;30784;48.490;9.688;2023-03-14T06:59:17;10.20;63.70
45044;DHT22;30784;48.490;9.688;2023-03-14T07:01:42;10.10;63.60
45044;DHT22;30784;48.490;9.688;2023-03-14T07:04:09;10.20;63.80
45044;DHT22;30784;48.490;9.688;2023-03-14T07:06:35;10.20;63.60
45044;DHT22;30784;48.490;9.688;2023-03-14T07:09:00;10.20;63.80
45044;DHT22;30784;48.490;9.688;2023-03-14T07:11:26;10.20;63.80
45044;DHT22;30784;48.490;9.688;2023-03-14T07:13:52;10.20;63.70
45044;DHT22;30784;48.490;9.688;2023-03-14T07:16:17;10.30;63.60
45044;DHT22;30784;48.490;9.688;2023-03-14T07:18:43;10.30;63.60
45044;DHT22;30784;48.490;9.688;2023-03-14T07:21:08;10.30;64.20
45044;DHT22;30784;48.490;9.688;2023-03-14T07:23:34;10.30;63.60
45044;DHT22;30784;48.490;9.688;2023-03-14T07:26:00;10.40;63.60
45044;DHT22;30784;48.490;9.688;2023-03-14T07:28:26;10.40;63.60
45044;DHT22;30784;48.490;9.688;2023-03-14T07:30:53;10.40;63.50
45044;DHT22;30784;48.490;9.688;2023-03-14T07:33:19;10.40;63.40
45044;DHT22;30784;48.490;9.688;2023-03-14T07:35:49;10.50;63.50
45044;DHT22;30784;48.490;9.688;2023-03-14T07:38:15;10.50;63.50
45044;DHT22;30784;48.490;9.688;2023-03-14T07:40:41;10.50;63.50
45044;DHT22;30784;48.490;9.688;2023-03-14T07:43:07;10.60;63.60
45044;DHT22;30784;48.490;9.688;2023-03-14T07:45:32;10.70;63.60
45044;DHT22;30784;48.490;9.688;2023-03-14T07:47:58;10.70;63.40
45044;DHT22;30784;48.490;9.688;2023-03-14T07:50:26;10.80;63.40
45044;DHT22;30784;48.490;9.688;2023-03-14T07:52:53;10.90;63.00
45044;DHT22;30784;48.490;9.688;2023-03-14T07:55:19;11.00;63.30
45044;DHT22;30784;48.490;9.688;2023-03-14T07:57:44;11.10;63.30
45044;DHT22;30784;48.490;9.688;2023-03-14T08:00:10;11.20;63.00
45044;DHT22;30784;48.490;9.688;2023-03-14T08:02:36;11.30;62.70
45044;DHT22;30784;48.490;9.688;2023-03-14T08:05:03;11.50;62.20
45044;DHT22;30784;48.490;9.688;2023-03-14T08:07:29;11.60;62.20
45044;DHT22;30784;48.490;9.688;2023-03-14T08:09:54;11.80;62.20
45044;DHT22;30784;48.490;9.688;2023-03-14T08:12:20;11.90;61.50
45044;DHT22;30784;48.490;9.688;2023-03-14T08:14:45;12.10;61.00
45044;DHT22;30784;48.490;9.688;2023-03-14T08:17:11;12.20;60.80
45044;DHT22;30784;48.490;9.688;2023-03-14T08:19:37;12.30;60.40
45044;DHT22;30784;48.490;9.688;2023-03-14T08:22:02;12.40;60.10
45044;DHT22;30784;48.490;9.688;2023-03-14T08:24:28;12.60;60.40
45044;DHT22;30784;48.490;9.688;2023-03-14T08:26:53;12.70;60.20
45044;DHT22;30784;48.490;9.688;2023-03-14T08:29:19;12.90;59.20
45044;DHT22;30784;48.490;9.688;2023-03-14T08:31:45;13.10;59.00
45044;DHT22;30784;48.490;9.688;2023-03-14T08:34:10;13.20;59.10
45044;DHT22;30784;48.490;9.688;2023-03-14T08:36:36;13.40;58.90
45044;DHT22;30784;48.490;9.688;2023-03-14T08:39:02;13.50;57.30
45044;DHT22;30784;48.490;9.688;2023-03-14T08:41:29;13.60;57.40
45044;DHT22;30784;48.490;9.688;2023-03-14T08:43:55;13.70;57.10
45044;DHT22;30784;48.490;9.688;2023-03-14T08:46:20;13.90;57.20
45044;DHT22;30784;48.490;9.688;2023-03-14T08:48:46;13.90;56.90
45044;DHT22;30784;48.490;9.688;2023-03-14T08:51:13;14.00;56.40
45044;DHT22;30784;48.490;9.688;2023-03-14T08:53:39;14.00;56.60
45044;DHT22;30784;48.490;9.688;2023-03-14T08:56:05;14.10;56.00
45044;DHT22;30784;48.490;9.688;2023-03-14T08:58:32;14.10;55.70
45044;DHT22;30784;48.490;9.688;2023-03-14T09:00:58;14.10;55.90
45044;DHT22;30784;48.490;9.688;2023-03-14T09:03:24;14.10;55.10
45044;DHT22;30784;48.490;9.688;2023-03-14T09:05:51;14.40;55.00
45044;DHT22;30784;48.490;9.688;2023-03-14T09:08:17;14.10;54.30
45044;DHT22;30784;48.490;9.688;2023-03-14T09:10:42;14.10;54.50
45044;DHT22;30784;48.490;9.688;2023-03-14T09:13:09;14.00;54.50
45044;DHT22;30784;48.490;9.688;2023-03-14T09:15:34;13.90;54.70
45044;DHT22;30784;48.490;9.688;2023-03-14T09:18:00;13.90;54.30
45044;DHT22;30784;48.490;9.688;2023-03-14T09:20:26;13.80;54.40
45044;DHT22;30784;48.490;9.688;2023-03-14T09:22:52;13.80;54.80
45044;DHT22;30784;48.490;9.688;2023-03-14T09:25:17;13.80;55.10
45044;DHT22;30784;48.490;9.688;2023-03-14T09:27:43;13.80;55.10
45044;DHT22;30784;48.490;9.688;2023-03-14T09:30:09;13.80;55.30
45044;DHT22;30784;48.490;9.688;2023-03-14T09:32:34;13.90;55.50
45044;DHT22;30784;48.490;9.688;2023-03-14T09:35:00;13.90;55.40
45044;DHT22;30784;48.490;9.688;2023-03-14T09:37:26;14.00;55.10
45044;DHT22;30784;48.490;9.688;2023-03-14T09:39:51;14.10;55.00
45044;DHT22;30784;48.490;9.688;2023-03-14T09:42:20;14.20;54.80
45044;DHT22;30784;48.490;9.688;2023-03-14T09:44:59;14.30;54.60
45044;DHT22;30784;48.490;9.688;2023-03-14T09:47:26;14.40;54.20
45044;DHT22;30784;48.490;9.688;2023-03-14T09:49:53;14.50;53.20
45044;DHT22;30784;48.490;9.688;2023-03-14T09:52:25;14.50;53.00
45044;DHT22;30784;48.490;9.688;2023-03-14T09:54:54;14.60;52.90
45044;DHT22;30784;48.490;9.688;2023-03-14T09:57:24;14.60;52.40
45044;DHT22;30784;48.490;9.688;2023-03-14T09:59:53;14.60;52.00
45044;DHT22;30784;48.490;9.688;2023-03-14T10:04:48;14.70;51.00
45044;DHT22;30784;48.490;9.688;2023-03-14T10:07:17;14.70;50.80
45044;DHT22;30784;48.490;9.688;2023-03-14T10:09:47;14.80;50.20
45044;DHT22;30784;48.490;9.688;2023-03-14T10:12:13;14.80;50.50
45044;DHT22;30784;48.490;9.688;2023-03-14T10:14:48;14.80;50.20
45044;DHT22;30784;48.490;9.688;2023-03-14T10:17:16;14.90;50.40
45044;DHT22;30784;48.490;9.688;2023-03-14T10:19:54;14.90;50.10
45044;DHT22;30784;48.490;9.688;2023-03-14T10:22:21;14.90;50.40
45044;DHT22;30784;48.490;9.688;2023-03-14T10:24:53;14.90;50.00
45044;DHT22;30784;48.490;9.688;2023-03-14T10:27:28;14.90;49.80
45044;DHT22;30784;48.490;9.688;2023-03-14T10:29:59;14.90;49.70
45044;DHT22;30784;48.490;9.688;2023-03-14T10:35:19;14.80;49.50
45044;DHT22;30784;48.490;9.688;2023-03-14T10:37:55;14.80;50.30
45044;DHT22;30784;48.490;9.688;2023-03-14T10:40:32;14.70;49.70
45044;DHT22;30784;48.490;9.688;2023-03-14T10:42:59;14.70;49.90
45044;DHT22;30784;48.490;9.688;2023-03-14T10:45:36;14.60;50.20
45044;DHT22;30784;48.490;9.688;2023-03-14T10:56:23;14.30;50.80
45044;DHT22;30784;48.490;9.688;2023-03-14T10:58:51;14.20;51.10
45044;DHT22;30784;48.490;9.688;2023-03-14T11:07:14;14.10;50.80
45044;DHT22;30784;48.490;9.688;2023-03-14T11:09:43;14.10;51.00
45044;DHT22;30784;48.490;9.688;2023-03-14T11:12:32;14.00;51.10
45044;DHT22;30784;48.490;9.688;2023-03-14T11:15:25;14.00;50.70
45044;DHT22;30784;48.490;9.688;2023-03-14T11:20:46;13.90;50.60
45044;DHT22;30784;48.490;9.688;2023-03-14T11:23:31;13.80;51.00
45044;DHT22;30784;48.490;9.688;2023-03-14T11:28:41;13.70;51.60
45044;DHT22;30784;48.490;9.688;2023-03-14T11:31:27;13.70;51.90
45044;DHT22;30784;48.490;9.688;2023-03-14T11:34:27;13.70;52.60
45044;DHT22;30784;48.490;9.688;2023-03-14T11:37:04;13.70;52.90
45044;DHT22;30784;48.490;9.688;2023-03-14T11:39:40;13.80;53.70
45044;DHT22;30784;48.490;9.688;2023-03-14T11:42:17;13.90;53.40
45044;DHT22;30784;48.490;9.688;2023-03-14T11:44:48;13.80;53.60
45044;DHT22;30784;48.490;9.688;2023-03-14T11:50:04;13.80;54.00
45044;DHT22;30784;48.490;9.688;2023-03-14T11:52:38;13.80;54.10
45044;DHT22;30784;48.490;9.688;2023-03-14T11:55:20;13.70;54.50
45044;DHT22;30784;48.490;9.688;2023-03-14T11:57:47;13.70;54.20
45044;DHT22;30784;48.490;9.688;2023-03-14T12:00:20;13.60;54.60
45044;DHT22;30784;48.490;9.688;2023-03-14T12:08:30;13.30;54.60
45044;DHT22;30784;48.490;9.688;2023-03-14T12:11:15;13.20;55.10
45044;DHT22;30784;48.490;9.688;2023-03-14T12:13:47;13.10;55.30
45044;DHT22;30784;48.490;9.688;2023-03-14T12:18:49;12.90;55.70
45044;DHT22;30784;48.490;9.688;2023-03-14T12:21:14;12.90;56.00
45044;DHT22;30784;48.490;9.688;2023-03-14T12:23:44;12.80;56.10
45044;DHT22;30784;48.490;9.688;2023-03-14T12:28:37;12.70;56.30
45044;DHT22;30784;48.490;9.688;2023-03-14T12:42:20;12.50;56.90
45044;DHT22;30784;48.490;9.688;2023-03-14T12:44:49;12.40;57.00
45044;DHT22;30784;48.490;9.688;2023-03-14T12:49:47;12.40;57.90
45044;DHT22;30784;48.490;9.688;2023-03-14T12:52:36;12.40;57.80
45044;DHT22;30784;48.490;9.688;2023-03-14T12:55:10;12.40;58.00
45044;DHT22;30784;48.490;9.688;2023-03-14T12:57:44;12.40;58.50
45044;DHT22;30784;48.490;9.688;2023-03-14T13:00:51;12.30;58.30
45044;DHT22;30784;48.490;9.688;2023-03-14T13:03:22;12.30;57.60
45044;DHT22;30784;48.490;9.688;2023-03-14T13:06:00;12.30;57.50
45044;DHT22;30784;48.490;9.688;2023-03-14T13:08:34;12.20;56.30
45044;DHT22;30784;48.490;9.688;2023-03-14T13:11:02;12.10;55.40
45044;DHT22;30784;48.490;9.688;2023-03-14T13:13:29;11.90;54.70
45044;DHT22;30784;48.490;9.688;2023-03-14T13:15:57;11.80;55.50
45044;DHT22;30784;48.490;9.688;2023-03-14T13:18:36;11.70;55.50
45044;DHT22;30784;48.490;9.688;2023-03-14T13:21:22;11.50;55.60
45044;DHT22;30784;48.490;9.688;2023-03-14T13:24:00;11.50;55.90
45044;DHT22;30784;48.490;9.688;2023-03-14T13:26:36;11.40;55.80
45044;DHT22;30784;48.490;9.688;2023-03-14T13:29:20;11.40;55.20
45044;DHT22;30784;48.490;9.688;2023-03-14T13:31:48;11.30;55.20
45044;DHT22;30784;48.490;9.688;2023-03-14T13:34:14;11.30;55.40
45044;DHT22;30784;48.490;9.688;2023-03-14T13:36:40;11.30;55.60
45044;DHT22;30784;48.490;9.688;2023-03-14T13:39:20;11.30;54.60
45044;DHT22;30784;48.490;9.688;2023-03-14T13:41:50;11.30;53.80
45044;DHT22;30784;48.490;9.688;2023-03-14T13:44:26;11.30;52.90
45044;DHT22;30784;48.490;9.688;2023-03-14T13:47:01;11.30;52.50
45044;DHT22;30784;48.490;9.688;2023-03-14T13:49:27;11.20;51.90
45044;DHT22;30784;48.490;9.688;2023-03-14T13:51:54;11.20;51.90
45044;DHT22;30784;48.490;9.688;2023-03-14T13:54:21;11.10;51.60
45044;DHT22;30784;48.490;9.688;2023-03-14T13:56:48;11.10;51.50
45044;DHT22;30784;48.490;9.688;2023-03-14T13:59:24;11.00;51.70
45044;DHT22;30784;48.490;9.688;2023-03-14T14:01:50;11.00;52.10
45044;DHT22;30784;48.490;9.688;2023-03-14T14:04:18;11.00;51.00
45044;DHT22;30784;48.490;9.688;2023-03-14T14:06:50;10.90;50.70
45044;DHT22;30784;48.490;9.688;2023-03-14T14:09:20;10.90;50.90
45044;DHT22;30784;48.490;9.688;2023-03-14T14:12:04;10.80;50.20
45044;DHT22;30784;48.490;9.688;2023-03-14T14:14:36;10.80;50.10
45044;DHT22;30784;48.490;9.688;2023-03-14T14:17:07;10.70;49.20
45044;DHT22;30784;48.490;9.688;2023-03-14T14:19:34;10.70;49.30
45044;DHT22;30784;48.490;9.688;2023-03-14T14:22:00;10.60;49.10
45044;DHT22;30784;48.490;9.688;2023-03-14T14:24:30;10.50;48.80
45044;DHT22;30784;48.490;9.688;2023-03-14T14:27:15;10.50;48.50
45044;DHT22;30784;48.490;9.688;2023-03-14T14:29:42;10.40;49.80
45044;DHT22;30784;48.490;9.688;2023-03-14T14:34:42;10.40;48.30
45044;DHT22;30784;48.490;9.688;2023-03-14T14:39:47;10.30;46.80
45044;DHT22;30784;48.490;9.688;2023-03-14T14:42:18;10.20;46.70
45044;DHT22;30784;48.490;9.688;2023-03-14T14:44:44;10.10;46.70
45044;DHT22;30784;48.490;9.688;2023-03-14T14:47:14;10.10;45.90
45044;DHT22;30784;48.490;9.688;2023-03-14T14:49:41;10.00;45.80
45044;DHT22;30784;48.490;9.688;2023-03-14T14:52:18;10.10;47.30
45044;DHT22;30784;48.490;9.688;2023-03-14T14:57:27;10.00;46.10
45044;DHT22;30784;48.490;9.688;2023-03-14T14:59:59;9.90;46.70
45044;DHT22;30784;48.490;9.688;2023-03-14T15:02:36;10.00;46.30
45044;DHT22;30784;48.490;9.688;2023-03-14T15:05:08;10.00;46.70
45044;DHT22;30784;48.490;9.688;2023-03-14T15:07:37;10.00;46.00
45044;DHT22;30784;48.490;9.688;2023-03-14T15:10:02;10.00;46.10
45044;DHT22;30784;48.490;9.688;2023-03-14T15:12:28;10.00;45.50
45044;DHT22;30784;48.490;9.688;2023-03-14T15:14:53;9.90;45.80
45044;DHT22;30784;48.490;9.688;2023-03-14T15:17:22;9.90;45.70
45044;DHT22;30784;48.490;9.688;2023-03-14T15:19:48;9.90;44.60
45044;DHT22;30784;48.490;9.688;2023-03-14T15:22:13;9.90;44.50
45044;DHT22;30784;48.490;9.688;2023-03-14T15:24:40;9.80;44.60
45044;DHT22;30784;48.490;9.688;2023-03-14T15:27:13;9.90;44.80
45044;DHT22;30784;48.490;9.688;2023-03-14T15:29:40;9.80;45.00
45044;DHT22;30784;48.490;9.688;2023-03-14T15:32:13;9.80;45.00
45044;DHT22;30784;48.490;9.688;2023-03-14T15:34:39;9.80;44.80
45044;DHT22;30784;48.490;9.688;2023-03-14T15:37:07;9.80;45.20
45044;DHT22;30784;48.490;9.688;2023-03-14T15:39:34;9.80;44.50
45044;DHT22;30784;48.490;9.688;2023-03-14T15:42:00;9.70;44.60
45044;DHT22;30784;48.490;9.688;2023-03-14T15:44:26;9.70;44.50
45044;DHT22;30784;48.490;9.688;2023-03-14T15:46:51;9.70;44.50
45044;DHT22;30784;48.490;9.688;2023-03-14T15:49:17;9.70;44.10
45044;DHT22;30784;48.490;9.688;2023-03-14T15:51:42;9.70;44.00
45044;DHT22;30784;48.490;9.688;2023-03-14T15:54:08;9.70;44.20
45044;DHT22;30784;48.490;9.688;2023-03-14T15:56:33;9.70;44.20
45044;DHT22;30784;48.490;9.688;2023-03-14T15:58:59;9.70;44.10
45044;DHT22;30784;48.490;9.688;2023-03-14T16:01:24;9.70;44.20
45044;DHT22;30784;48.490;9.688;2023-03-14T16:03:50;9.70;44.20
45044;DHT22;30784;48.490;9.688;2023-03-14T16:06:18;9.70;44.50
45044;DHT22;30784;48.490;9.688;2023-03-14T16:08:44;9.70;44.30
45044;DHT22;30784;48.490;9.688;2023-03-14T16:11:11;9.70;43.90
45044;DHT22;30784;48.490;9.688;2023-03-14T16:13:38;9.80;43.30
45044;DHT22;30784;48.490;9.688;2023-03-14T16:16:05;9.80;43.20
45044;DHT22;30784;48.490;9.688;2023-03-14T16:18:34;9.80;43.30
45044;DHT22;30784;48.490;9.688;2023-03-14T16:21:02;9.80;43.20
45044;DHT22;30784;48.490;9.688;2023-03-14T16:23:30;9.80;42.90
45044;DHT22;30784;48.490;9.688;2023-03-14T16:26:02;9.80;43.10
45044;DHT22;30784;48.490;9.688;2023-03-14T16:28:28;9.80;43.20
45044;DHT22;30784;48.490;9.688;2023-03-14T16:31:00;9.80;43.20
45044;DHT22;30784;48.490;9.688;2023-03-14T16:33:26;9.80;43.10
45044;DHT22;30784;48.490;9.688;2023-03-14T16:35:56;9.80;43.20
45044;DHT22;30784;48.490;9.688;2023-03-14T16:38:23;9.70;43.10
45044;DHT22;30784;48.490;9.688;2023-03-14T16:41:00;9.70;43.30
45044;DHT22;30784;48.490;9.688;2023-03-14T16:43:27;9.70;43.50